createdAt,value
2024-05-09T00:00:39.236Z,11.63
2024-05-09T00:03:08.394Z,11.62
2024-05-09T00:05:36.548Z,11.61
2024-05-09T00:08:03.842Z,11.61
2024-05-09T00:10:36.315Z,11.59
2024-05-09T00:13:06.082Z,11.54
2024-05-09T00:15:33.810Z,11.52
2024-05-09T00:18:00.936Z,11.52
2024-05-09T00:20:35.993Z,11.53
2024-05-09T00:23:07.238Z,11.50
2024-05-09T00:25:34.350Z,11.50
2024-05-09T00:28:01.260Z,11.47
2024-05-09T00:30:33.394Z,11.48
2024-05-09T00:33:04.054Z,11.52
2024-05-09T00:35:31.364Z,11.53
2024-05-09T00:37:58.046Z,11.55
2024-05-09T00:40:35.148Z,11.59
2024-05-09T00:43:06.314Z,11.65
2024-05-09T00:45:34.216Z,11.70
2024-05-09T00:48:04.912Z,11.74
2024-05-09T00:50:36.518Z,11.78
2024-05-09T00:53:06.140Z,11.82
2024-05-09T00:55:34.042Z,11.87
2024-05-09T00:58:01.221Z,11.90
2024-05-09T01:00:35.679Z,11.97
2024-05-09T01:03:06.408Z,12.02
2024-05-09T01:05:34.330Z,12.08
2024-05-09T01:08:01.343Z,12.10
2024-05-09T01:10:33.865Z,12.16
2024-05-09T01:13:03.050Z,12.19
2024-05-09T01:15:29.639Z,12.25
2024-05-09T01:17:57.045Z,12.31
2024-05-09T01:20:36.355Z,12.36
2024-05-09T01:23:08.869Z,12.42
2024-05-09T01:25:35.782Z,12.44
2024-05-09T01:28:02.470Z,12.48
2024-05-09T01:30:34.676Z,12.52
2024-05-09T01:33:05.250Z,12.50
2024-05-09T01:35:33.000Z,12.51
2024-05-09T01:37:59.703Z,12.54
2024-05-09T01:40:36.197Z,12.54
2024-05-09T01:43:05.583Z,12.59
2024-05-09T01:45:32.203Z,12.62
2024-05-09T01:47:59.124Z,12.63
2024-05-09T01:50:37.077Z,12.67
2024-05-09T01:53:07.758Z,12.70
2024-05-09T01:55:34.470Z,12.74
2024-05-09T01:58:01.092Z,12.76
2024-05-09T02:00:37.611Z,12.81
2024-05-09T02:03:09.669Z,12.82
2024-05-09T02:05:36.963Z,12.83
2024-05-09T02:08:04.619Z,12.82
2024-05-09T02:10:33.075Z,12.81
2024-05-09T02:13:00.170Z,12.81
2024-05-09T02:15:26.820Z,12.82
2024-05-09T02:17:53.761Z,12.78
2024-05-09T02:20:30.127Z,12.77
2024-05-09T02:23:03.823Z,12.76
2024-05-09T02:25:31.018Z,12.72
2024-05-09T02:27:58.355Z,12.67
2024-05-09T02:30:34.942Z,12.60
2024-05-09T02:33:06.598Z,12.54
2024-05-09T02:35:33.585Z,12.50
2024-05-09T02:38:00.399Z,12.46
2024-05-09T02:40:35.585Z,12.46
2024-05-09T02:43:04.964Z,12.44
2024-05-09T02:45:31.593Z,12.40
2024-05-09T02:47:58.556Z,12.42
2024-05-09T02:50:33.809Z,12.40
2024-05-09T02:53:04.980Z,12.38
2024-05-09T02:55:31.637Z,12.38
2024-05-09T02:57:58.215Z,12.35
2024-05-09T03:00:34.211Z,12.28
2024-05-09T03:03:06.466Z,12.18
2024-05-09T03:05:33.662Z,12.10
2024-05-09T03:08:00.323Z,12.01
2024-05-09T03:10:29.116Z,11.91
2024-05-09T03:13:05.880Z,11.75
2024-05-09T03:15:33.029Z,11.67
2024-05-09T03:18:00.750Z,11.58
2024-05-09T03:20:33.293Z,11.49
2024-05-09T03:23:02.058Z,11.38
2024-05-09T03:25:28.730Z,11.29
2024-05-09T03:27:55.278Z,11.19
2024-05-09T03:30:31.080Z,11.07
2024-05-09T03:33:10.427Z,10.98
2024-05-09T03:35:37.247Z,10.90
2024-05-09T03:38:04.147Z,10.83
2024-05-09T03:40:31.413Z,10.79
2024-05-09T03:42:58.732Z,10.73
2024-05-09T03:45:25.541Z,10.65
2024-05-09T03:47:52.665Z,10.63
2024-05-09T03:50:26.374Z,10.56
2024-05-09T03:53:00.272Z,10.51
2024-05-09T03:55:27.074Z,10.48
2024-05-09T03:57:53.636Z,10.43
2024-05-09T04:00:30.392Z,10.39
2024-05-09T04:03:02.590Z,10.35
2024-05-09T04:05:30.726Z,10.29
2024-05-09T04:07:57.664Z,10.30
2024-05-09T04:10:31.315Z,10.25
2024-05-09T04:13:00.761Z,10.23
2024-05-09T04:15:27.471Z,10.25
2024-05-09T04:17:54.242Z,10.26
2024-05-09T04:20:29.565Z,10.24
2024-05-09T04:23:04.398Z,10.23
2024-05-09T04:25:31.953Z,10.26
2024-05-09T04:27:58.521Z,10.28
2024-05-09T04:30:34.594Z,10.30
2024-05-09T04:33:07.119Z,10.31
2024-05-09T04:35:35.148Z,10.28
2024-05-09T04:38:01.880Z,10.33
2024-05-09T04:40:33.802Z,10.35
2024-05-09T04:43:03.990Z,10.34
2024-05-09T04:45:30.697Z,10.32
2024-05-09T04:47:57.488Z,10.26
2024-05-09T04:50:33.814Z,10.20
2024-05-09T04:53:04.976Z,10.13
2024-05-09T04:55:33.079Z,10.11
2024-05-09T04:57:59.774Z,10.08
2024-05-09T05:00:34.498Z,10.04
2024-05-09T05:03:08.879Z,10.04
2024-05-09T05:05:40.845Z,10.04
2024-05-09T05:08:11.795Z,10.05
2024-05-09T05:10:38.376Z,10.04
2024-05-09T05:13:20.008Z,10.03
2024-05-09T05:15:53.593Z,10.04
2024-05-09T05:18:21.011Z,10.03
2024-05-09T05:20:48.004Z,10.05
2024-05-09T05:23:16.801Z,10.07
2024-05-09T05:25:43.979Z,10.08
2024-05-09T05:28:10.991Z,10.08
2024-05-09T05:30:38.171Z,10.12
2024-05-09T05:33:05.857Z,10.16
2024-05-09T05:35:33.133Z,10.24
2024-05-09T05:38:00.011Z,10.30
2024-05-09T05:40:33.319Z,10.37
2024-05-09T05:43:10.668Z,10.46
2024-05-09T05:45:37.680Z,10.54
2024-05-09T05:48:06.089Z,10.58
2024-05-09T05:50:36.547Z,10.64
2024-05-09T05:53:09.129Z,10.71
2024-05-09T05:55:37.018Z,10.79
2024-05-09T05:58:03.782Z,10.86
2024-05-09T06:00:37.843Z,10.94
2024-05-09T06:03:06.852Z,11.03
2024-05-09T06:05:33.796Z,11.11
2024-05-09T06:08:00.907Z,11.19
2024-05-09T06:10:37.144Z,11.26
2024-05-09T06:13:06.599Z,11.32
2024-05-09T06:15:33.191Z,11.37
2024-05-09T06:18:00.087Z,11.44
2024-05-09T06:20:34.521Z,11.51
2024-05-09T06:23:04.506Z,11.61
2024-05-09T06:25:31.740Z,11.69
2024-05-09T06:28:00.793Z,11.76
2024-05-09T06:30:36.631Z,11.83
2024-05-09T06:33:07.186Z,11.94
2024-05-09T06:35:34.310Z,12.05
2024-05-09T06:38:01.362Z,12.15
2024-05-09T06:40:35.880Z,12.24
2024-05-09T06:43:05.259Z,12.33
2024-05-09T06:45:31.818Z,12.43
2024-05-09T06:47:58.531Z,12.49
2024-05-09T06:50:28.507Z,12.63
2024-05-09T06:53:01.923Z,12.79
2024-05-09T06:55:28.501Z,12.89
2024-05-09T06:57:55.077Z,13.02
2024-05-09T07:00:27.742Z,13.22
2024-05-09T07:03:05.567Z,13.32
2024-05-09T07:05:33.247Z,13.34
2024-05-09T07:08:00.094Z,13.40
2024-05-09T07:10:32.862Z,13.52
2024-05-09T07:13:01.965Z,13.62
2024-05-09T07:15:28.576Z,13.67
2024-05-09T07:17:55.494Z,13.68
2024-05-09T07:20:32.297Z,13.72
2024-05-09T07:23:02.843Z,13.82
2024-05-09T07:25:29.738Z,13.94
2024-05-09T07:27:56.519Z,14.06
2024-05-09T07:30:27.907Z,14.22
2024-05-09T07:33:00.246Z,14.35
2024-05-09T07:35:27.297Z,14.45
2024-05-09T07:37:54.266Z,14.58
2024-05-09T07:40:31.555Z,14.61
2024-05-09T07:43:06.877Z,14.70
2024-05-09T07:52:23.773Z,14.92
2024-05-09T07:53:39.325Z,15.02
2024-05-09T07:56:10.112Z,15.07
2024-05-09T07:58:37.506Z,15.16
2024-05-09T08:01:04.715Z,15.23
2024-05-09T08:03:33.822Z,15.29
2024-05-09T08:06:00.654Z,15.35
2024-05-09T08:08:27.325Z,15.43
2024-05-09T08:10:53.966Z,15.50
2024-05-09T08:13:20.748Z,15.48
2024-05-09T08:15:49.084Z,15.55
2024-05-09T08:18:15.991Z,15.58
2024-05-09T08:20:42.733Z,15.61
2024-05-09T08:23:11.062Z,15.62
2024-05-09T08:25:38.516Z,15.67
2024-05-09T08:28:05.465Z,15.69
2024-05-09T08:30:36.877Z,15.78
2024-05-09T08:33:06.386Z,15.81
2024-05-09T08:35:33.814Z,15.83
2024-05-09T08:38:04.253Z,15.91
2024-05-09T08:40:35.569Z,16.02
2024-05-09T08:43:07.565Z,16.07
2024-05-09T08:45:35.443Z,16.08
2024-05-09T08:48:07.602Z,16.08
2024-05-09T08:50:38.912Z,16.19
2024-05-09T08:53:07.277Z,16.18
2024-05-09T08:55:34.104Z,16.25
2024-05-09T08:58:01.133Z,16.36
2024-05-09T09:00:35.828Z,16.36
2024-05-09T09:03:05.985Z,16.42
2024-05-09T09:05:35.325Z,16.52
2024-05-09T09:08:04.719Z,16.54
2024-05-09T09:10:32.731Z,16.58
2024-05-09T09:13:04.895Z,16.67
2024-05-09T09:15:32.380Z,16.68
2024-05-09T09:18:00.440Z,16.65
2024-05-09T09:20:35.317Z,16.58
2024-05-09T09:23:04.098Z,16.54
2024-05-09T09:25:30.965Z,16.51
2024-05-09T09:27:58.119Z,16.47
2024-05-09T09:30:34.675Z,16.50
2024-05-09T09:33:10.598Z,16.54
2024-05-09T09:35:39.481Z,16.50
2024-05-09T09:38:07.581Z,16.44
2024-05-09T09:40:39.216Z,16.39
2024-05-09T09:43:14.676Z,16.27
2024-05-09T09:45:43.677Z,16.20
2024-05-09T09:48:11.917Z,16.24
2024-05-09T09:50:39.120Z,16.33
2024-05-09T09:53:07.267Z,16.43
2024-05-09T09:55:34.826Z,16.54
2024-05-09T09:58:01.505Z,16.68
2024-05-09T10:00:32.977Z,16.84
2024-05-09T10:03:01.165Z,17.03
2024-05-09T10:05:28.843Z,17.18
2024-05-09T10:07:55.853Z,17.21
2024-05-09T10:10:30.378Z,17.20
2024-05-09T10:13:03.689Z,17.14
2024-05-09T10:15:42.622Z,17.08
2024-05-09T10:18:09.385Z,17.00
2024-05-09T10:20:46.003Z,16.92
2024-05-09T10:23:26.244Z,16.90
2024-05-09T10:25:56.246Z,16.99
2024-05-09T10:28:29.808Z,17.09
2024-05-09T10:31:16.013Z,17.26
2024-05-09T10:33:51.439Z,17.43
2024-05-09T10:36:19.907Z,17.64
2024-05-09T10:38:46.582Z,17.81
2024-05-09T10:41:13.183Z,17.90
2024-05-09T10:43:40.840Z,18.00
2024-05-09T10:46:07.950Z,18.13
2024-05-09T10:48:36.105Z,18.19
2024-05-09T10:51:04.210Z,18.24
2024-05-09T10:53:31.518Z,18.36
2024-05-09T10:56:01.609Z,18.34
2024-05-09T10:58:28.652Z,18.39
2024-05-09T11:00:57.699Z,18.40
2024-05-09T11:03:25.132Z,18.43
2024-05-09T11:05:53.365Z,18.44
2024-05-09T11:08:23.638Z,18.42
2024-05-09T11:10:54.158Z,18.46
2024-05-09T11:13:27.802Z,18.52
2024-05-09T11:15:54.691Z,18.50
2024-05-09T11:18:26.205Z,18.47
2024-05-09T11:20:54.883Z,18.45
2024-05-09T11:23:22.699Z,18.43
2024-05-09T11:25:50.079Z,18.46
2024-05-09T11:28:18.055Z,18.43
2024-05-09T11:30:44.677Z,18.47
2024-05-09T11:33:11.905Z,18.51
2024-05-09T11:35:38.507Z,18.56
2024-05-09T11:38:05.161Z,18.66
2024-05-09T11:40:34.429Z,18.76
2024-05-09T11:43:01.537Z,18.71
2024-05-09T11:45:28.452Z,18.70
2024-05-09T11:47:55.313Z,18.77
2024-05-09T11:50:27.327Z,18.70
2024-05-09T11:52:59.062Z,18.70
2024-05-09T11:55:28.110Z,18.76
2024-05-09T11:57:55.488Z,18.90
2024-05-09T12:00:29.640Z,19.06
2024-05-09T12:03:04.797Z,19.21
2024-05-09T12:05:32.151Z,19.35
2024-05-09T12:07:58.949Z,19.42
2024-05-09T12:10:32.696Z,19.56
2024-05-09T12:13:02.104Z,19.68
2024-05-09T12:15:28.990Z,19.78
2024-05-09T12:17:58.359Z,19.90
2024-05-09T12:20:35.144Z,19.94
2024-05-09T12:23:05.054Z,20.01
2024-05-09T12:25:31.652Z,20.08
2024-05-09T12:27:58.312Z,20.13
2024-05-09T12:30:33.209Z,20.11
2024-05-09T12:33:04.900Z,20.00
2024-05-09T12:35:31.697Z,19.93
2024-05-09T12:37:58.338Z,19.94
2024-05-09T12:40:34.224Z,20.02
2024-05-09T12:43:03.910Z,20.23
2024-05-09T12:45:30.595Z,20.45
2024-05-09T12:47:57.309Z,20.51
2024-05-09T12:50:31.043Z,20.55
2024-05-09T12:52:59.655Z,20.55
2024-05-09T12:55:26.981Z,20.57
2024-05-09T12:57:54.912Z,20.57
2024-05-09T13:00:28.142Z,20.57
2024-05-09T13:03:00.351Z,20.45
2024-05-09T13:05:27.390Z,20.30
2024-05-09T13:07:54.178Z,20.28
2024-05-09T13:10:29.012Z,20.42
2024-05-09T13:12:59.322Z,20.42
2024-05-09T13:15:26.106Z,20.33
2024-05-09T13:17:52.847Z,20.28
2024-05-09T13:20:28.885Z,20.34
2024-05-09T13:23:01.765Z,20.35
2024-05-09T13:25:28.376Z,20.41
2024-05-09T13:27:55.473Z,20.41
2024-05-09T13:30:29.671Z,20.33
2024-05-09T13:33:07.029Z,20.37
2024-05-09T13:35:35.954Z,20.43
2024-05-09T13:38:03.340Z,20.60
2024-05-09T13:40:34.373Z,20.73
2024-05-09T13:43:04.097Z,20.79
2024-05-09T13:45:31.596Z,20.87
2024-05-09T13:47:58.688Z,20.95
2024-05-09T13:50:33.273Z,20.99
2024-05-09T13:53:02.810Z,20.96
2024-05-09T13:55:29.468Z,20.91
2024-05-09T13:57:56.387Z,20.92
2024-05-09T14:00:37.389Z,20.98
2024-05-09T14:03:10.069Z,21.04
2024-05-09T14:05:37.038Z,21.09
2024-05-09T14:08:04.078Z,21.22
2024-05-09T14:10:32.016Z,21.36
2024-05-09T14:13:00.286Z,21.47
2024-05-09T14:15:26.997Z,21.40
2024-05-09T14:17:54.344Z,21.45
2024-05-09T14:20:30.318Z,21.44
2024-05-09T14:22:59.165Z,21.36
2024-05-09T14:25:28.284Z,21.25
2024-05-09T14:27:55.218Z,21.36
2024-05-09T14:30:30.500Z,21.36
2024-05-09T14:33:03.781Z,21.39
2024-05-09T14:35:30.600Z,21.57
2024-05-09T14:37:57.197Z,21.73
2024-05-09T14:42:53.967Z,21.61
2024-05-09T14:45:20.628Z,21.60
2024-05-09T14:47:47.343Z,21.53
2024-05-09T14:50:23.506Z,21.59
2024-05-09T14:52:54.690Z,21.67
2024-05-09T14:55:21.307Z,21.90
2024-05-09T14:57:47.970Z,22.05
2024-05-09T15:00:21.448Z,22.17
2024-05-09T15:02:55.127Z,22.16
2024-05-09T15:05:21.867Z,22.14
2024-05-09T15:07:48.821Z,22.31
2024-05-09T15:10:23.805Z,22.48
2024-05-09T15:12:58.122Z,22.49
2024-05-09T15:15:24.755Z,22.54
2024-05-09T15:17:51.549Z,22.50
2024-05-09T15:20:26.718Z,22.59
2024-05-09T15:22:58.122Z,22.59
2024-05-09T15:25:24.738Z,22.71
2024-05-09T15:27:51.445Z,22.56
2024-05-09T15:30:24.445Z,22.49
2024-05-09T15:32:56.984Z,22.29
2024-05-09T15:35:23.589Z,22.24
2024-05-09T15:37:50.322Z,22.29
2024-05-09T15:40:26.223Z,22.44
2024-05-09T15:43:02.012Z,22.61
2024-05-09T15:45:32.070Z,22.72
2024-05-09T15:47:59.128Z,22.80
2024-05-09T15:50:35.569Z,22.85
2024-05-09T15:53:06.329Z,22.85
2024-05-09T15:55:33.960Z,22.81
2024-05-09T15:58:01.900Z,22.80
2024-05-09T16:00:36.636Z,22.88
2024-05-09T16:03:06.913Z,22.87
2024-05-09T16:05:33.913Z,22.78
2024-05-09T16:08:00.684Z,22.84
2024-05-09T16:10:32.439Z,22.85
2024-05-09T16:13:01.048Z,22.86
2024-05-09T16:15:27.785Z,22.97
2024-05-09T16:17:57.630Z,23.06
2024-05-09T16:22:54.304Z,23.41
2024-05-09T16:25:20.917Z,23.61
2024-05-09T16:27:47.676Z,23.71
2024-05-09T16:30:21.241Z,23.80
2024-05-09T16:32:54.854Z,23.74
2024-05-09T16:35:21.507Z,23.62
2024-05-09T16:37:48.132Z,23.51
2024-05-09T16:40:22.173Z,23.43
2024-05-09T16:42:56.752Z,23.27
2024-05-09T16:45:24.078Z,23.01
2024-05-09T16:47:50.710Z,22.92
2024-05-09T16:50:25.698Z,22.94
2024-05-09T16:52:55.720Z,22.94
2024-05-09T16:55:22.439Z,22.88
2024-05-09T16:57:49.440Z,22.81
2024-05-09T17:00:25.232Z,22.82
2024-05-09T17:02:58.222Z,22.70
2024-05-09T17:05:25.243Z,22.60
2024-05-09T17:07:51.901Z,22.48
2024-05-09T17:10:26.620Z,22.20
2024-05-09T17:12:58.849Z,21.97
2024-05-09T17:15:25.698Z,21.81
2024-05-09T17:17:52.355Z,21.58
2024-05-09T17:20:29.255Z,21.35
2024-05-09T17:23:00.344Z,21.20
2024-05-09T17:25:27.195Z,21.03
2024-05-09T17:27:54.326Z,20.84
2024-05-09T17:30:28.840Z,20.67
2024-05-09T17:33:01.340Z,20.57
2024-05-09T17:35:28.181Z,20.56
2024-05-09T17:37:54.892Z,20.63
2024-05-09T17:40:30.696Z,20.69
2024-05-09T17:43:01.018Z,20.80
2024-05-09T17:45:27.645Z,20.91
2024-05-09T17:47:54.454Z,20.99
2024-05-09T17:50:27.549Z,21.02
2024-05-09T17:53:00.574Z,21.00
2024-05-09T17:55:28.455Z,20.88
2024-05-09T17:57:55.417Z,20.75
2024-05-09T18:00:32.687Z,20.54
2024-05-09T18:03:05.376Z,20.30
2024-05-09T18:05:32.394Z,20.12
2024-05-09T18:07:59.179Z,19.93
2024-05-09T18:10:32.983Z,19.78
2024-05-09T18:13:05.136Z,19.60
2024-05-09T18:15:32.009Z,19.46
2024-05-09T18:17:58.758Z,19.32
2024-05-09T18:20:36.100Z,19.20
2024-05-09T18:23:08.252Z,19.07
2024-05-09T18:25:34.905Z,18.90
2024-05-09T18:28:02.491Z,18.75
2024-05-09T18:30:34.701Z,18.63
2024-05-09T18:33:03.942Z,18.49
2024-05-09T18:35:30.947Z,18.40
2024-05-09T18:37:57.521Z,18.29
2024-05-09T18:40:32.406Z,18.18
2024-05-09T18:43:02.517Z,18.08
2024-05-09T18:45:29.314Z,18.00
2024-05-09T18:47:56.131Z,17.85
2024-05-09T18:50:31.942Z,17.76
2024-05-09T18:53:03.366Z,17.66
2024-05-09T18:55:29.988Z,17.58
2024-05-09T18:57:57.018Z,17.48
2024-05-09T19:00:33.144Z,17.42
2024-05-09T19:03:05.151Z,17.32
2024-05-09T19:05:32.764Z,17.27
2024-05-09T19:07:59.615Z,17.23
2024-05-09T19:10:32.200Z,17.17
2024-05-09T19:13:02.843Z,17.14
2024-05-09T19:15:30.671Z,17.17
2024-05-09T19:17:57.540Z,17.15
2024-05-09T19:20:28.722Z,17.15
2024-05-09T19:23:00.398Z,17.14
2024-05-09T19:25:26.969Z,17.12
2024-05-09T19:27:53.721Z,17.09
2024-05-09T19:30:29.740Z,17.03
2024-05-09T19:33:05.375Z,17.01
2024-05-09T19:35:32.385Z,16.96
2024-05-09T19:37:59.057Z,16.92
2024-05-09T19:40:31.138Z,16.88
2024-05-09T19:42:59.956Z,16.78
2024-05-09T19:45:26.566Z,16.71
2024-05-09T19:47:53.575Z,16.68
2024-05-09T19:50:27.033Z,16.60
2024-05-09T19:53:02.841Z,16.61
2024-05-09T19:55:29.536Z,16.55
2024-05-09T19:57:56.164Z,16.52
2024-05-09T20:00:29.451Z,16.43
2024-05-09T20:03:02.130Z,16.38
2024-05-09T20:05:30.738Z,16.33
2024-05-09T20:07:57.769Z,16.29
2024-05-09T20:10:29.837Z,16.22
2024-05-09T20:12:59.441Z,16.20
2024-05-09T20:15:26.083Z,16.15
2024-05-09T20:17:53.693Z,16.13
2024-05-09T20:20:28.645Z,16.07
2024-05-09T20:23:03.292Z,16.00
2024-05-09T20:25:29.865Z,15.98
2024-05-09T20:27:56.478Z,15.93
2024-05-09T20:30:30.596Z,15.91
2024-05-09T20:32:59.407Z,15.88
2024-05-09T20:35:26.597Z,15.81
2024-05-09T20:37:53.772Z,15.78
2024-05-09T20:40:28.367Z,15.72
2024-05-09T20:42:59.274Z,15.67
2024-05-09T20:45:26.000Z,15.61
2024-05-09T20:47:53.522Z,15.56
2024-05-09T20:50:28.639Z,15.51
2024-05-09T20:53:03.086Z,15.44
2024-05-09T20:55:30.121Z,15.38
2024-05-09T20:57:57.228Z,15.32
2024-05-09T21:00:34.406Z,15.22
2024-05-09T21:03:06.712Z,15.16
2024-05-09T21:05:34.641Z,15.10
2024-05-09T21:08:01.682Z,15.03
2024-05-09T21:10:32.691Z,14.99
2024-05-09T21:13:00.885Z,14.91
2024-05-09T21:15:27.607Z,14.84
2024-05-09T21:17:54.225Z,14.79
2024-05-09T21:20:28.100Z,14.75
2024-05-09T21:22:57.615Z,14.69
2024-05-09T21:25:24.349Z,14.65
2024-05-09T21:27:52.345Z,14.63
2024-05-09T21:30:31.437Z,14.60
2024-05-09T21:33:08.617Z,14.58
2024-05-09T21:35:36.239Z,14.54
2024-05-09T21:38:04.319Z,14.51
2024-05-09T21:40:34.605Z,14.44
2024-05-09T21:43:03.622Z,14.40
2024-05-09T21:45:30.515Z,14.38
2024-05-09T21:47:57.196Z,14.34
2024-05-09T21:50:31.795Z,14.28
2024-05-09T21:53:05.435Z,14.26
2024-05-09T21:55:32.038Z,14.22
2024-05-09T21:57:58.672Z,14.19
2024-05-09T22:00:34.489Z,14.15
2024-05-09T22:03:04.623Z,14.09
2024-05-09T22:05:31.424Z,14.02
2024-05-09T22:07:58.084Z,14.02
2024-05-09T22:10:30.722Z,13.98
2024-05-09T22:13:01.116Z,13.97
2024-05-09T22:15:28.019Z,13.97
2024-05-09T22:17:56.046Z,13.95
2024-05-09T22:20:29.419Z,13.94
2024-05-09T22:23:03.848Z,13.92
2024-05-09T22:25:31.311Z,13.91
2024-05-09T22:27:58.884Z,13.89
2024-05-09T22:30:34.132Z,13.90
2024-05-09T22:33:05.849Z,13.88
2024-05-09T22:35:32.755Z,13.87
2024-05-09T22:37:59.524Z,13.87
2024-05-09T22:40:38.047Z,13.85
2024-05-09T22:43:12.831Z,13.82
2024-05-09T22:45:39.708Z,13.81
2024-05-09T22:48:07.736Z,13.77
2024-05-09T22:50:34.632Z,13.77
2024-05-09T22:53:01.450Z,13.76
2024-05-09T22:55:28.344Z,13.76
2024-05-09T22:57:55.421Z,13.73
2024-05-09T23:00:30.440Z,13.71
2024-05-09T23:03:02.164Z,13.69
2024-05-09T23:05:29.247Z,13.69
2024-05-09T23:07:56.109Z,13.64
2024-05-09T23:10:30.899Z,13.62
2024-05-09T23:13:01.878Z,13.60
2024-05-09T23:15:28.796Z,13.58
2024-05-09T23:17:57.121Z,13.57
2024-05-09T23:20:33.411Z,13.55
2024-05-09T23:23:05.176Z,13.53
2024-05-09T23:25:31.786Z,13.51
2024-05-09T23:27:58.633Z,13.51
2024-05-09T23:32:55.108Z,13.47
2024-05-09T23:35:21.932Z,13.43
2024-05-09T23:37:48.532Z,13.40
2024-05-09T23:40:18.799Z,13.36
2024-05-09T23:42:49.249Z,13.29
2024-05-09T23:45:15.867Z,13.22
2024-05-09T23:47:43.601Z,13.17
2024-05-09T23:50:16.786Z,13.09
2024-05-09T23:52:50.142Z,13.04
2024-05-09T23:55:16.796Z,13.00
2024-05-09T23:57:44.089Z,12.94
